Echo Of Wight — VQIP9 — position and weather

sailwx.info

Track history (hours):
 
Tides and Currents Weather Stations Pressure Air Temp Water Temp Dewpoint Dewpoint Depression Visibility Wind Speed Wind Dir Waves Ship Positions

Echo Of Wight

Last reported at 2018-Jun-20 20:35 UTC. Time now 2018-Jun-20 20:57 UTC.
Position N 46°02' W 001°22'.

Length 10 m.

Type: Sailing vessel. MMSI: 235008623.

Date/timePositionNaut miles runAvg speedWind from/ knotsBaromVisibWave heightAir tempDewpointWater temp
2018-Jun-20 20:35N 46°02' W 001°22'0 0.0
2018-Jun-20 20:29N 46°02' W 001°22'0 0.0
2018-Jun-20 19:59N 46°02' W 001°22'0 0.0
2018-Jun-20 19:29N 46°02' W 001°22'0 0.0
2018-Jun-20 18:58N 46°02' W 001°22'0 0.0
2018-Jun-20 18:28N 46°02' W 001°22'0 0.0
2018-Jun-20 17:58N 46°02' W 001°22'0 0.0
2018-Jun-20 17:28N 46°02' W 001°22'0 0.0
2018-Jun-20 16:55N 46°02' W 001°22'0 0.0
2018-Jun-20 16:28N 46°02' W 001°22'0 0.0
2018-Jun-20 15:58N 46°02' W 001°22'0 0.0
2018-Jun-20 15:28N 46°02' W 001°22'0 0.0
2018-Jun-20 14:58N 46°02' W 001°22'0 0.0
2018-Jun-20 14:28N 46°02' W 001°22'0 0.0
2018-Jun-20 13:58N 46°02' W 001°22'0 0.0
2018-Jun-20 13:28N 46°02' W 001°22'0 0.0
2018-Jun-20 12:58N 46°02' W 001°22'0 0.0
2018-Jun-20 12:28N 46°02' W 001°22'0 0.0
2018-Jun-20 11:58N 46°02' W 001°22'0 0.0
2018-Jun-20 11:28N 46°02' W 001°22'0 0.0
2018-Jun-20 10:58N 46°02' W 001°22'0 0.0
2018-Jun-20 10:28N 46°02' W 001°22'0 0.0
2018-Jun-20 09:58N 46°02' W 001°22'0 0.0
2018-Jun-20 09:30N 46°02' W 001°22'2 4.4
2018-Jun-20 09:00N 46°03' W 001°20'3 5.5
2018-Jun-20 08:30N 46°05' W 001°17'3 5.3
2018-Jun-20 08:00N 46°07' W 001°14'2 5.0
2018-Jun-20 07:30N 46°09' W 001°11'1 1.1
2018-Jun-20 06:58N 46°09' W 001°10'0 0.0
2018-Jun-19 20:14N 46°09' W 001°10'0 0.0
2018-Jun-19 19:59N 46°09' W 001°10'0 0.0
2018-Jun-19 19:29N 46°09' W 001°10'0 0.0
2018-Jun-19 19:00N 46°09' W 001°10'0 0.0
2018-Jun-19 18:30N 46°09' W 001°10'0 0.0
2018-Jun-19 18:00N 46°09' W 001°10'0 0.0
2018-Jun-19 17:30N 46°09' W 001°10'0 0.0
2018-Jun-19 17:00N 46°09' W 001°10'0 0.0
2018-Jun-19 16:30N 46°09' W 001°10'0 0.0
2018-Jun-19 16:00N 46°09' W 001°10'0 0.0
2018-Jun-19 15:30N 46°09' W 001°10'0 0.0
2018-Jun-19 15:00N 46°09' W 001°10'0 0.0
2018-Jun-19 14:30N 46°09' W 001°10'0 0.0
2018-Jun-19 14:00N 46°09' W 001°10'0 0.0
2018-Jun-19 13:28N 46°09' W 001°10'0 0.0
2018-Jun-19 12:58N 46°09' W 001°10'0 0.0
2018-Jun-19 12:28N 46°09' W 001°10'0 0.0
2018-Jun-19 11:58N 46°09' W 001°10'0 0.0
2018-Jun-19 11:28N 46°09' W 001°10'0 0.0
2018-Jun-17 21:40N 46°09' W 001°10'0 0.0
2018-Jun-17 21:28N 46°09' W 001°10'0 0.0
2018-Jun-17 20:58N 46°09' W 001°10'0 0.0
2018-Jun-17 20:28N 46°09' W 001°10'0 0.0
2018-Jun-17 19:58N 46°09' W 001°10'0 0.0
2018-Jun-17 19:28N 46°09' W 001°10'0 0.0
2018-Jun-17 18:58N 46°09' W 001°10'0 0.0
2018-Jun-17 18:28N 46°09' W 001°10'0 0.0
2018-Jun-17 17:58N 46°09' W 001°10'0 0.0
2018-Jun-17 17:28N 46°09' W 001°10'0 0.0
2018-Jun-17 16:58N 46°09' W 001°10'0 0.0
2018-Jun-17 10:32N 46°09' W 001°10'0 0.0
2018-Jun-17 10:29N 46°09' W 001°10'0 0.1
2018-Jun-17 10:00N 46°09' W 001°10'1 1.1
2018-Jun-17 09:30N 46°09' W 001°11'2 4.4
2018-Jun-17 09:00N 46°09' W 001°14'3 5.0
2018-Jun-17 08:30N 46°11' W 001°16'2 4.4
2018-Jun-17 08:00N 46°12' W 001°18'2 4.3
2018-Jun-17 07:30N 46°13' W 001°21'1 1.7
2018-Jun-17 06:56N 46°12' W 001°22'0 0.0
2018-Jun-16 17:19N 46°12' W 001°22'0 0.0
2018-Jun-16 16:58N 46°12' W 001°22'0 0.0
2018-Jun-16 16:28N 46°12' W 001°22'0 0.0
2018-Jun-16 15:58N 46°12' W 001°22'0 0.0
2018-Jun-16 15:28N 46°12' W 001°22'0 0.0
2018-Jun-16 14:58N 46°12' W 001°22'0 0.0
2018-Jun-16 14:28N 46°12' W 001°22'0 0.0
2018-Jun-16 13:58N 46°12' W 001°22'0 0.0
2018-Jun-16 13:28N 46°12' W 001°22'0 0.0
2018-Jun-16 12:58N 46°12' W 001°22'0 0.0
2018-Jun-16 12:28N 46°12' W 001°22'0 0.0
2018-Jun-16 11:55N 46°12' W 001°22'0 0.0
2018-Jun-16 11:28N 46°12' W 001°22'0 0.0
2018-Jun-16 10:58N 46°12' W 001°22'0 0.0
2018-Jun-16 10:28N 46°12' W 001°22'0 0.0
2018-Jun-16 09:58N 46°12' W 001°22'0 0.0
2018-Jun-16 09:28N 46°12' W 001°22'0 0.0
2018-Jun-14 20:39N 46°12' W 001°22'0 0.0
2018-Jun-14 20:30N 46°12' W 001°22'0 0.0
2018-Jun-14 19:59N 46°12' W 001°22'0 0.0
2018-Jun-14 19:29N 46°12' W 001°22'0 0.0
2018-Jun-14 18:58N 46°12' W 001°22'0 0.0
2018-Jun-14 18:28N 46°12' W 001°22'0 0.0
2018-Jun-14 17:58N 46°12' W 001°22'0 0.0
2018-Jun-14 17:28N 46°12' W 001°22'0 0.0
2018-Jun-14 16:58N 46°12' W 001°22'0 0.0
2018-Jun-14 16:28N 46°12' W 001°22'0 0.0
2018-Jun-14 15:59N 46°12' W 001°22'0 0.0
2018-Jun-14 15:29N 46°12' W 001°22'0 0.0
2018-Jun-14 14:58N 46°12' W 001°22'0 0.0
2018-Jun-14 14:28N 46°12' W 001°22'0 0.0
2018-Jun-14 13:58N 46°12' W 001°22'0 0.0
2018-Jun-14 13:28N 46°12' W 001°22'0 0.0
2018-Jun-14 13:00N 46°12' W 001°22'0 0.0
2018-Jun-12 21:29N 46°12' W 001°22'0 0.0
2018-Jun-12 20:59N 46°12' W 001°22'0 0.0
2018-Jun-12 20:29N 46°12' W 001°22'0 0.0
2018-Jun-12 19:59N 46°12' W 001°22'0 0.0
2018-Jun-12 19:29N 46°12' W 001°22'0 0.0
2018-Jun-12 18:59N 46°12' W 001°22'0 0.0
2018-Jun-12 18:29N 46°12' W 001°22'0 0.0
2018-Jun-12 17:59N 46°12' W 001°22'0 0.0
2018-Jun-12 17:26N 46°12' W 001°22'0 0.0
2018-Jun-12 16:56N 46°12' W 001°22'0 0.0
2018-Jun-12 16:26N 46°12' W 001°22'0 0.0
2018-Jun-12 15:59N 46°12' W 001°22'0 0.0
2018-Jun-12 15:29N 46°12' W 001°22'0 0.0
2018-Jun-12 14:59N 46°12' W 001°22'0 0.0
2018-Jun-12 14:29N 46°12' W 001°22'0 0.0
2018-Jun-12 13:59N 46°12' W 001°22'0 0.0
2018-Jun-12 13:29N 46°12' W 001°22'0 0.0
2018-Jun-12 12:59N 46°12' W 001°22'0 0.0
2018-Jun-12 12:29N 46°12' W 001°22'0 0.0
2018-Jun-11 19:09N 46°12' W 001°22'0 0.0
2018-Jun-11 19:00N 46°12' W 001°22'0 0.0
2018-Jun-11 18:30N 46°12' W 001°22'0 0.0
2018-Jun-11 18:00N 46°12' W 001°22'0 0.0
2018-Jun-11 17:28N 46°12' W 001°22'0 0.0
2018-Jun-11 16:58N 46°12' W 001°22'0 0.0
2018-Jun-11 16:28N 46°12' W 001°22'0 0.0
2018-Jun-11 15:58N 46°12' W 001°22'0 0.0
2018-Jun-11 15:28N 46°12' W 001°22'0 0.0
2018-Jun-11 14:58N 46°12' W 001°22'0 0.0
2018-Jun-11 14:30N 46°12' W 001°22'0 0.0
2018-Jun-11 14:00N 46°12' W 001°22'0 0.0
2018-Jun-11 13:30N 46°12' W 001°22'0 0.0
2018-Jun-11 13:00N 46°12' W 001°22'0 0.0
2018-Jun-11 12:30N 46°12' W 001°22'0 0.0
2018-Jun-11 12:00N 46°12' W 001°22'0 0.0
2018-Jun-11 11:30N 46°12' W 001°22'0 0.0
2018-Jun-11 11:00N 46°12' W 001°22'0 0.0
2018-Jun-11 10:30N 46°12' W 001°22'  
Track history (hours):
 
Tides and Currents Weather Stations Pressure Air Temp Water Temp Dewpoint Dewpoint Depression Visibility Wind Speed Wind Dir Waves Ship Positions

Echo Of Wight

Last reported at 2018-Jun-20 20:35 UTC. Time now 2018-Jun-20 20:57 UTC.
Position N 46°02' W 001°22'.

Length 10 m.

Type: Sailing vessel. MMSI: 235008623.

Date/timePositionNaut miles runAvg speedWind from/ knotsBaromVisibWave heightAir tempDewpointWater temp
2018-Jun-20 20:35N 46°02' W 001°22'0 0.0
2018-Jun-20 20:29N 46°02' W 001°22'0 0.0
2018-Jun-20 19:59N 46°02' W 001°22'0 0.0
2018-Jun-20 19:29N 46°02' W 001°22'0 0.0
2018-Jun-20 18:58N 46°02' W 001°22'0 0.0
2018-Jun-20 18:28N 46°02' W 001°22'0 0.0
2018-Jun-20 17:58N 46°02' W 001°22'0 0.0
2018-Jun-20 17:28N 46°02' W 001°22'0 0.0
2018-Jun-20 16:55N 46°02' W 001°22'0 0.0
2018-Jun-20 16:28N 46°02' W 001°22'0 0.0
2018-Jun-20 15:58N 46°02' W 001°22'0 0.0
2018-Jun-20 15:28N 46°02' W 001°22'0 0.0
2018-Jun-20 14:58N 46°02' W 001°22'0 0.0
2018-Jun-20 14:28N 46°02' W 001°22'0 0.0
2018-Jun-20 13:58N 46°02' W 001°22'0 0.0
2018-Jun-20 13:28N 46°02' W 001°22'0 0.0
2018-Jun-20 12:58N 46°02' W 001°22'0 0.0
2018-Jun-20 12:28N 46°02' W 001°22'0 0.0
2018-Jun-20 11:58N 46°02' W 001°22'0 0.0
2018-Jun-20 11:28N 46°02' W 001°22'0 0.0
2018-Jun-20 10:58N 46°02' W 001°22'0 0.0
2018-Jun-20 10:28N 46°02' W 001°22'0 0.0
2018-Jun-20 09:58N 46°02' W 001°22'0 0.0
2018-Jun-20 09:30N 46°02' W 001°22'2 4.4
2018-Jun-20 09:00N 46°03' W 001°20'3 5.5
2018-Jun-20 08:30N 46°05' W 001°17'3 5.3
2018-Jun-20 08:00N 46°07' W 001°14'2 5.0
2018-Jun-20 07:30N 46°09' W 001°11'1 1.1
2018-Jun-20 06:58N 46°09' W 001°10'0 0.0
2018-Jun-19 20:14N 46°09' W 001°10'0 0.0
2018-Jun-19 19:59N 46°09' W 001°10'0 0.0
2018-Jun-19 19:29N 46°09' W 001°10'0 0.0
2018-Jun-19 19:00N 46°09' W 001°10'0 0.0
2018-Jun-19 18:30N 46°09' W 001°10'0 0.0
2018-Jun-19 18:00N 46°09' W 001°10'0 0.0
2018-Jun-19 17:30N 46°09' W 001°10'0 0.0
2018-Jun-19 17:00N 46°09' W 001°10'0 0.0
2018-Jun-19 16:30N 46°09' W 001°10'0 0.0
2018-Jun-19 16:00N 46°09' W 001°10'0 0.0
2018-Jun-19 15:30N 46°09' W 001°10'0 0.0
2018-Jun-19 15:00N 46°09' W 001°10'0 0.0
2018-Jun-19 14:30N 46°09' W 001°10'0 0.0
2018-Jun-19 14:00N 46°09' W 001°10'0 0.0
2018-Jun-19 13:28N 46°09' W 001°10'0 0.0
2018-Jun-19 12:58N 46°09' W 001°10'0 0.0
2018-Jun-19 12:28N 46°09' W 001°10'0 0.0
2018-Jun-19 11:58N 46°09' W 001°10'0 0.0
2018-Jun-19 11:28N 46°09' W 001°10'0 0.0
2018-Jun-17 21:40N 46°09' W 001°10'0 0.0
2018-Jun-17 21:28N 46°09' W 001°10'0 0.0
2018-Jun-17 20:58N 46°09' W 001°10'0 0.0
2018-Jun-17 20:28N 46°09' W 001°10'0 0.0
2018-Jun-17 19:58N 46°09' W 001°10'0 0.0
2018-Jun-17 19:28N 46°09' W 001°10'0 0.0
2018-Jun-17 18:58N 46°09' W 001°10'0 0.0
2018-Jun-17 18:28N 46°09' W 001°10'0 0.0
2018-Jun-17 17:58N 46°09' W 001°10'0 0.0
2018-Jun-17 17:28N 46°09' W 001°10'0 0.0
2018-Jun-17 16:58N 46°09' W 001°10'0 0.0
2018-Jun-17 10:32N 46°09' W 001°10'0 0.0
2018-Jun-17 10:29N 46°09' W 001°10'0 0.1
2018-Jun-17 10:00N 46°09' W 001°10'1 1.1
2018-Jun-17 09:30N 46°09' W 001°11'2 4.4
2018-Jun-17 09:00N 46°09' W 001°14'3 5.0
2018-Jun-17 08:30N 46°11' W 001°16'2 4.4
2018-Jun-17 08:00N 46°12' W 001°18'2 4.3
2018-Jun-17 07:30N 46°13' W 001°21'1 1.7
2018-Jun-17 06:56N 46°12' W 001°22'0 0.0
2018-Jun-16 17:19N 46°12' W 001°22'0 0.0
2018-Jun-16 16:58N 46°12' W 001°22'0 0.0
2018-Jun-16 16:28N 46°12' W 001°22'0 0.0
2018-Jun-16 15:58N 46°12' W 001°22'0 0.0
2018-Jun-16 15:28N 46°12' W 001°22'0 0.0
2018-Jun-16 14:58N 46°12' W 001°22'0 0.0
2018-Jun-16 14:28N 46°12' W 001°22'0 0.0
2018-Jun-16 13:58N 46°12' W 001°22'0 0.0
2018-Jun-16 13:28N 46°12' W 001°22'0 0.0
2018-Jun-16 12:58N 46°12' W 001°22'0 0.0
2018-Jun-16 12:28N 46°12' W 001°22'0 0.0
2018-Jun-16 11:55N 46°12' W 001°22'0 0.0
2018-Jun-16 11:28N 46°12' W 001°22'0 0.0
2018-Jun-16 10:58N 46°12' W 001°22'0 0.0
2018-Jun-16 10:28N 46°12' W 001°22'0 0.0
2018-Jun-16 09:58N 46°12' W 001°22'0 0.0
2018-Jun-16 09:28N 46°12' W 001°22'0 0.0
2018-Jun-14 20:39N 46°12' W 001°22'0 0.0
2018-Jun-14 20:30N 46°12' W 001°22'0 0.0
2018-Jun-14 19:59N 46°12' W 001°22'0 0.0
2018-Jun-14 19:29N 46°12' W 001°22'0 0.0
2018-Jun-14 18:58N 46°12' W 001°22'0 0.0
2018-Jun-14 18:28N 46°12' W 001°22'0 0.0
2018-Jun-14 17:58N 46°12' W 001°22'0 0.0
2018-Jun-14 17:28N 46°12' W 001°22'0 0.0
2018-Jun-14 16:58N 46°12' W 001°22'0 0.0
2018-Jun-14 16:28N 46°12' W 001°22'0 0.0
2018-Jun-14 15:59N 46°12' W 001°22'0 0.0
2018-Jun-14 15:29N 46°12' W 001°22'0 0.0
2018-Jun-14 14:58N 46°12' W 001°22'0 0.0
2018-Jun-14 14:28N 46°12' W 001°22'0 0.0
2018-Jun-14 13:58N 46°12' W 001°22'0 0.0
2018-Jun-14 13:28N 46°12' W 001°22'0 0.0
2018-Jun-14 13:00N 46°12' W 001°22'0 0.0
2018-Jun-12 21:29N 46°12' W 001°22'0 0.0
2018-Jun-12 20:59N 46°12' W 001°22'0 0.0
2018-Jun-12 20:29N 46°12' W 001°22'0 0.0
2018-Jun-12 19:59N 46°12' W 001°22'0 0.0
2018-Jun-12 19:29N 46°12' W 001°22'0 0.0
2018-Jun-12 18:59N 46°12' W 001°22'0 0.0
2018-Jun-12 18:29N 46°12' W 001°22'0 0.0
2018-Jun-12 17:59N 46°12' W 001°22'0 0.0
2018-Jun-12 17:26N 46°12' W 001°22'0 0.0
2018-Jun-12 16:56N 46°12' W 001°22'0 0.0
2018-Jun-12 16:26N 46°12' W 001°22'0 0.0
2018-Jun-12 15:59N 46°12' W 001°22'0 0.0
2018-Jun-12 15:29N 46°12' W 001°22'0 0.0
2018-Jun-12 14:59N 46°12' W 001°22'0 0.0
2018-Jun-12 14:29N 46°12' W 001°22'0 0.0
2018-Jun-12 13:59N 46°12' W 001°22'0 0.0
2018-Jun-12 13:29N 46°12' W 001°22'0 0.0
2018-Jun-12 12:59N 46°12' W 001°22'0 0.0
2018-Jun-12 12:29N 46°12' W 001°22'0 0.0
2018-Jun-11 19:09N 46°12' W 001°22'0 0.0
2018-Jun-11 19:00N 46°12' W 001°22'0 0.0
2018-Jun-11 18:30N 46°12' W 001°22'0 0.0
2018-Jun-11 18:00N 46°12' W 001°22'0 0.0
2018-Jun-11 17:28N 46°12' W 001°22'0 0.0
2018-Jun-11 16:58N 46°12' W 001°22'0 0.0
2018-Jun-11 16:28N 46°12' W 001°22'0 0.0
2018-Jun-11 15:58N 46°12' W 001°22'0 0.0
2018-Jun-11 15:28N 46°12' W 001°22'0 0.0
2018-Jun-11 14:58N 46°12' W 001°22'0 0.0
2018-Jun-11 14:30N 46°12' W 001°22'0 0.0
2018-Jun-11 14:00N 46°12' W 001°22'0 0.0
2018-Jun-11 13:30N 46°12' W 001°22'0 0.0
2018-Jun-11 13:00N 46°12' W 001°22'0 0.0
2018-Jun-11 12:30N 46°12' W 001°22'0 0.0
2018-Jun-11 12:00N 46°12' W 001°22'0 0.0
2018-Jun-11 11:30N 46°12' W 001°22'0 0.0
2018-Jun-11 11:00N 46°12' W 001°22'0 0.0
2018-Jun-11 10:30N 46°12' W 001°22'  

Dump ship's entire track history